createdAt,value
2023-03-06T00:00:50.168Z,97586.91
2023-03-06T00:05:55.630Z,97592.81
2023-03-06T00:10:58.524Z,97582.59
2023-03-06T00:16:01.412Z,97562.31
2023-03-06T00:21:07.897Z,97586.03
2023-03-06T00:26:10.842Z,97580.06
2023-03-06T00:31:16.014Z,97566.63
2023-03-06T00:36:18.659Z,97587.00
2023-03-06T00:41:21.580Z,97588.69
2023-03-06T00:46:24.266Z,97587.03
2023-03-06T00:51:26.992Z,97587.94
2023-03-06T00:56:30.242Z,97583.66
2023-03-06T01:01:33.770Z,97546.38
2023-03-06T01:06:36.524Z,97576.88
2023-03-06T01:11:39.271Z,97582.84
2023-03-06T01:16:41.984Z,97581.94
2023-03-06T01:21:45.225Z,97578.53
2023-03-06T01:26:47.972Z,97569.00
2023-03-06T01:31:50.683Z,97582.63
2023-03-06T01:36:53.271Z,97583.47
2023-03-06T01:41:55.881Z,97590.31
2023-03-06T01:46:58.619Z,97589.47
2023-03-06T01:52:12.323Z,97597.91
2023-03-06T01:57:23.432Z,97581.78
2023-03-06T02:02:26.683Z,97580.03
2023-03-06T02:07:30.010Z,97597.03
2023-03-06T02:12:33.003Z,97605.41
2023-03-06T02:17:35.999Z,97601.06
2023-03-06T02:22:59.924Z,97608.75
2023-03-06T02:28:02.963Z,97607.81
2023-03-06T02:33:06.513Z,97606.22
2023-03-06T02:38:12.205Z,97607.13
2023-03-06T02:43:18.983Z,97602.16
2023-03-06T02:48:21.976Z,97584.16
2023-03-06T02:53:24.837Z,97600.25
2023-03-06T02:58:27.570Z,97603.38
2023-03-06T03:03:30.293Z,97603.53
2023-03-06T03:08:34.888Z,97596.81
2023-03-06T03:13:39.113Z,97595.88
2023-03-06T03:18:48.043Z,97599.34
2023-03-06T03:23:53.960Z,97596.16
2023-03-06T03:28:56.774Z,97596.22
2023-03-06T03:34:00.388Z,97595.38
2023-03-06T03:39:05.595Z,97598.81
2023-03-06T03:44:09.225Z,97610.63
2023-03-06T03:49:12.296Z,97608.06
2023-03-06T03:54:15.334Z,97607.25
2023-03-06T03:59:21.299Z,97612.19
2023-03-06T04:04:35.362Z,97610.34
2023-03-06T04:09:38.930Z,97607.00
2023-03-06T04:14:42.355Z,97613.78
2023-03-06T04:19:45.233Z,97610.41
2023-03-06T04:24:50.147Z,97606.31
2023-03-06T04:29:56.515Z,97606.41
2023-03-06T04:34:59.657Z,97601.25
2023-03-06T04:40:09.513Z,97593.72
2023-03-06T04:45:12.312Z,97581.78
2023-03-06T04:50:16.126Z,97609.56
2023-03-06T04:55:19.885Z,97609.50
2023-03-06T05:00:24.751Z,97613.84
2023-03-06T05:05:28.129Z,97613.94
2023-03-06T05:10:30.783Z,97600.50
2023-03-06T05:15:34.117Z,97619.28
2023-03-06T05:20:36.793Z,97619.31
2023-03-06T05:25:40.626Z,97622.78
2023-03-06T05:30:43.302Z,97618.56
2023-03-06T05:35:47.549Z,97626.16
2023-03-06T05:40:50.263Z,97621.94
2023-03-06T05:46:04.250Z,97625.28
2023-03-06T05:51:06.961Z,97626.00
2023-03-06T05:56:10.075Z,97627.88
2023-03-06T06:01:15.659Z,97632.06
2023-03-06T06:06:18.491Z,97625.16
2023-03-06T06:11:21.245Z,97643.94
2023-03-06T06:16:23.849Z,97636.25
2023-03-06T06:21:26.449Z,97631.91
2023-03-06T06:26:29.256Z,97635.19
2023-03-06T06:31:31.973Z,97636.81
2023-03-06T06:36:34.808Z,97639.22
2023-03-06T06:41:57.028Z,97635.63
2023-03-06T06:52:24.813Z,97632.28
2023-03-06T06:57:27.522Z,97645.69
2023-03-06T07:02:30.190Z,97634.47
2023-03-06T07:07:37.764Z,97644.63
2023-03-06T07:12:40.464Z,97641.88
2023-03-06T07:17:43.409Z,97636.63
2023-03-06T07:22:51.385Z,97653.84
2023-03-06T07:27:55.124Z,97647.69
2023-03-06T07:32:58.990Z,97653.53
2023-03-06T07:38:01.946Z,97660.59
2023-03-06T07:43:18.408Z,97662.94
2023-03-06T07:48:28.165Z,97665.53
2023-03-06T07:53:30.935Z,97674.53
2023-03-06T07:58:33.680Z,97673.88
2023-03-06T08:03:36.527Z,97679.91
2023-03-06T08:08:40.839Z,97681.50
2023-03-06T08:13:43.713Z,97679.50
2023-03-06T08:18:46.712Z,97678.63
2023-03-06T08:23:50.042Z,97677.75
2023-03-06T08:28:54.051Z,97672.09
2023-03-06T08:33:58.674Z,97684.34
2023-03-06T08:39:01.715Z,97682.22
2023-03-06T08:44:05.258Z,97669.00
2023-03-06T08:49:07.957Z,97683.91
2023-03-06T08:54:13.005Z,97686.97
2023-03-06T08:59:15.652Z,97680.53
2023-03-06T09:04:18.442Z,97694.03
2023-03-06T09:09:21.089Z,97684.09
2023-03-06T09:14:23.735Z,97677.72
2023-03-06T09:19:26.744Z,97695.72
2023-03-06T09:24:29.379Z,97692.53
2023-03-06T09:29:31.933Z,97700.22
2023-03-06T09:34:34.566Z,97692.56
2023-03-06T09:39:37.396Z,97691.19
2023-03-06T09:44:41.605Z,97713.56
2023-03-06T09:49:56.113Z,97713.03
2023-03-06T09:54:58.805Z,97704.00
2023-03-06T10:00:19.230Z,97707.88
2023-03-06T10:05:26.331Z,97713.84
2023-03-06T10:10:53.176Z,97707.16
2023-03-06T10:16:06.634Z,97723.16
2023-03-06T10:21:33.034Z,97728.56
2023-03-06T10:26:45.708Z,97726.59
2023-03-06T10:31:58.993Z,97727.44
2023-03-06T10:37:15.366Z,97731.03
2023-03-06T10:42:17.948Z,97731.06
2023-03-06T10:47:35.735Z,97722.41
2023-03-06T10:52:38.475Z,97726.38
2023-03-06T10:57:41.094Z,97732.66
2023-03-06T11:02:43.668Z,97727.03
2023-03-06T11:07:57.816Z,97727.44
2023-03-06T11:13:02.848Z,97726.06
2023-03-06T11:18:08.130Z,97730.00
2023-03-06T11:23:32.385Z,97724.44
2023-03-06T11:28:40.994Z,97724.84
2023-03-06T11:34:12.183Z,97742.84
2023-03-06T11:39:41.862Z,97733.63
2023-03-06T11:44:53.448Z,97736.06
2023-03-06T11:50:02.514Z,97735.16
2023-03-06T11:55:09.130Z,97742.00
2023-03-06T12:00:22.566Z,97755.63
2023-03-06T12:05:37.289Z,97747.66
2023-03-06T12:10:51.742Z,97742.41
2023-03-06T12:16:19.629Z,97753.91
2023-03-06T12:22:14.544Z,97757.28
2023-03-06T12:27:38.804Z,97762.09
2023-03-06T12:33:07.376Z,97772.28
2023-03-06T12:38:31.659Z,97780.16
2023-03-06T12:44:05.012Z,97775.13
2023-03-06T12:49:23.008Z,97775.06
2023-03-06T12:54:37.365Z,97782.59
2023-03-06T12:59:48.643Z,97772.00
2023-03-06T13:05:00.357Z,97772.34
2023-03-06T13:10:25.732Z,97784.19
2023-03-06T13:15:37.338Z,97784.53
2023-03-06T13:20:46.304Z,97785.38
2023-03-06T13:25:50.459Z,97755.72
2023-03-06T13:30:53.556Z,97780.38
2023-03-06T13:35:58.638Z,97789.78
2023-03-06T13:41:33.085Z,97805.16
2023-03-06T13:46:37.953Z,97799.22
2023-03-06T13:51:47.500Z,97800.06
2023-03-06T13:56:59.211Z,97811.13
2023-03-06T14:02:41.286Z,97806.00
2023-03-06T14:07:49.526Z,97825.44
2023-03-06T14:12:52.029Z,97828.84
2023-03-06T14:18:00.714Z,97831.41
2023-03-06T14:23:21.313Z,97845.88
2023-03-06T14:28:29.896Z,97828.84
2023-03-06T14:33:43.330Z,97844.88
2023-03-06T14:38:53.971Z,97839.66
2023-03-06T14:44:24.223Z,97855.72
2023-03-06T14:49:27.363Z,97855.69
2023-03-06T14:54:37.140Z,97859.97
2023-03-06T14:59:44.797Z,97864.16
2023-03-06T15:04:51.352Z,97878.59
2023-03-06T15:09:55.206Z,97886.94
2023-03-06T15:15:10.495Z,97902.25
2023-03-06T15:20:44.081Z,97907.38
2023-03-06T15:25:59.014Z,97917.50
2023-03-06T15:31:20.224Z,97910.00
2023-03-06T15:36:29.776Z,97929.56
2023-03-06T15:41:37.578Z,97933.75
2023-03-06T15:46:41.397Z,97932.88
2023-03-06T15:51:44.032Z,97943.81
2023-03-06T15:56:49.174Z,97937.97
2023-03-06T16:01:53.023Z,97948.06
2023-03-06T16:06:55.677Z,97953.75
2023-03-06T16:11:58.812Z,97961.28
2023-03-06T16:17:01.420Z,97972.00
2023-03-06T16:22:04.550Z,97981.94
2023-03-06T16:27:07.210Z,97983.47
2023-03-06T16:32:11.373Z,97990.59
2023-03-06T16:37:14.399Z,97989.66
2023-03-06T16:42:17.811Z,97999.16
2023-03-06T16:47:20.357Z,97997.59
2023-03-06T16:52:23.298Z,98002.66
2023-03-06T16:57:27.309Z,98000.78
2023-03-06T17:02:30.067Z,98010.16
2023-03-06T17:07:34.245Z,98018.34
2023-03-06T17:12:36.968Z,98014.72
2023-03-06T17:17:39.495Z,98023.09
2023-03-06T17:22:46.692Z,98027.19
2023-03-06T17:27:49.453Z,98027.31
2023-03-06T17:32:52.067Z,98022.47
2023-03-06T17:37:54.739Z,98050.69
2023-03-06T17:42:57.392Z,98045.75
2023-03-06T17:48:00.073Z,98055.03
2023-03-06T17:53:02.688Z,98064.34
2023-03-06T17:58:05.182Z,98071.53
2023-03-06T18:03:09.501Z,98060.41
2023-03-06T18:08:12.126Z,98051.66
2023-03-06T18:13:15.368Z,98070.09
2023-03-06T18:18:21.155Z,98074.09
2023-03-06T18:23:24.198Z,98060.34
2023-03-06T18:28:26.766Z,98080.44
2023-03-06T18:33:29.284Z,98083.69
2023-03-06T18:38:32.023Z,98075.88
2023-03-06T18:43:35.989Z,98071.28
2023-03-06T18:48:38.516Z,98090.06
2023-03-06T18:53:41.720Z,98090.94
2023-03-06T18:58:44.980Z,98091.63
2023-03-06T19:03:47.631Z,98094.94
2023-03-06T19:08:50.333Z,98092.75
2023-03-06T19:13:53.381Z,98097.63
2023-03-06T19:18:56.349Z,98101.09
2023-03-06T19:23:59.587Z,98110.38
2023-03-06T19:29:02.118Z,98111.44
2023-03-06T19:34:04.637Z,98108.22
2023-03-06T19:39:07.979Z,98112.66
2023-03-06T19:44:12.330Z,98109.72
2023-03-06T19:49:18.103Z,98111.31
2023-03-06T19:54:23.584Z,98115.44
2023-03-06T19:59:26.154Z,98111.16
2023-03-06T20:04:32.653Z,98117.97
2023-03-06T20:09:36.036Z,98122.22
2023-03-06T20:14:38.757Z,98124.25
2023-03-06T20:19:41.555Z,98121.84
2023-03-06T20:24:44.119Z,98118.72
2023-03-06T20:29:47.030Z,98103.94
2023-03-06T20:34:49.588Z,98117.59
2023-03-06T20:39:52.808Z,98121.91
2023-03-06T20:44:55.376Z,98125.31
2023-03-06T20:49:57.987Z,98114.00
2023-03-06T20:55:00.647Z,98118.41
2023-03-06T21:00:05.189Z,98112.50
2023-03-06T21:05:08.317Z,98119.41
2023-03-06T21:10:11.709Z,98116.97
2023-03-06T21:15:15.456Z,98128.31
2023-03-06T21:20:17.897Z,98097.09
2023-03-06T21:25:20.617Z,98119.41
2023-03-06T21:30:23.127Z,98121.75
2023-03-06T21:35:25.670Z,98119.47
2023-03-06T21:40:28.208Z,98118.47
2023-03-06T21:45:31.693Z,98120.03
2023-03-06T21:50:35.309Z,98133.09
2023-03-06T21:55:41.054Z,98129.44
2023-03-06T22:00:43.724Z,98134.63
2023-03-06T22:05:46.292Z,98122.97
2023-03-06T22:10:49.146Z,98131.56
2023-03-06T22:15:53.610Z,98127.50
2023-03-06T22:20:56.213Z,98109.06
2023-03-06T22:26:05.308Z,98120.97
2023-03-06T22:31:23.947Z,98105.59
2023-03-06T22:36:28.251Z,98118.75
2023-03-06T22:41:31.324Z,98123.03
2023-03-06T22:46:33.978Z,98122.09
2023-03-06T22:51:37.786Z,98123.69
2023-03-06T22:56:40.306Z,98115.44
2023-03-06T23:01:43.360Z,98109.75
2023-03-06T23:06:47.056Z,98107.97
2023-03-06T23:11:50.008Z,98116.34
2023-03-06T23:17:11.134Z,98108.91
2023-03-06T23:22:32.509Z,98103.38
2023-03-06T23:27:53.767Z,98113.19
2023-03-06T23:32:56.493Z,98115.41
2023-03-06T23:38:00.095Z,98114.66
2023-03-06T23:43:03.313Z,98120.97
2023-03-06T23:48:08.085Z,98104.06
2023-03-06T23:53:10.650Z,98103.13
2023-03-06T23:58:14.518Z,98114.25
